createdAt,value
2019-05-12T00:01:28.654Z,9.20
2019-05-12T00:05:29.950Z,10.60
2019-05-12T00:09:30.936Z,11.00
2019-05-12T00:13:32.111Z,10.70
2019-05-12T00:17:33.237Z,10.60
2019-05-12T00:21:36.744Z,8.20
2019-05-12T00:25:38.790Z,8.30
2019-05-12T00:29:40.150Z,9.00
2019-05-12T00:33:41.031Z,8.50
2019-05-12T00:37:42.170Z,7.70
2019-05-12T00:41:44.527Z,9.20
2019-05-12T00:45:48.087Z,8.10
2019-05-12T00:49:50.367Z,7.40
2019-05-12T00:53:51.640Z,7.30
2019-05-12T00:57:52.987Z,7.70
2019-05-12T01:01:54.182Z,8.80
2019-05-12T01:05:57.736Z,8.40
2019-05-12T01:10:01.440Z,9.20
2019-05-12T01:14:02.411Z,8.80
2019-05-12T01:18:03.686Z,9.10
2019-05-12T01:22:04.707Z,8.60
2019-05-12T01:26:08.678Z,9.20
2019-05-12T01:30:09.394Z,9.20
2019-05-12T01:34:10.485Z,8.90
2019-05-12T01:38:11.521Z,9.10
2019-05-12T01:42:12.492Z,8.90
2019-05-12T01:46:13.806Z,9.00
2019-05-12T01:50:14.800Z,8.40
2019-05-12T01:54:15.688Z,7.70
2019-05-12T01:58:19.350Z,8.30
2019-05-12T02:02:19.645Z,8.50
2019-05-12T02:06:20.540Z,8.50
2019-05-12T02:10:22.680Z,8.40
2019-05-12T02:14:23.672Z,7.90
2019-05-12T02:18:25.220Z,7.30
2019-05-12T02:22:27.899Z,7.60
2019-05-12T02:26:29.168Z,8.00
2019-05-12T02:30:30.947Z,8.50
2019-05-12T02:34:34.973Z,7.80
2019-05-12T02:38:35.513Z,8.10
2019-05-12T02:42:36.628Z,7.30
2019-05-12T02:46:37.646Z,8.10
2019-05-12T02:50:38.826Z,6.90
2019-05-12T02:54:51.913Z,7.60
2019-05-12T02:58:45.315Z,7.80
2019-05-12T03:02:49.368Z,8.10
2019-05-12T03:06:50.559Z,7.90
2019-05-12T03:10:54.627Z,8.20
2019-05-12T03:14:54.575Z,7.70
2019-05-12T03:18:55.518Z,8.20
2019-05-12T03:22:56.441Z,7.90
2019-05-12T03:26:57.350Z,7.40
2019-05-12T03:30:58.647Z,7.60
2019-05-12T03:34:59.701Z,7.50
2019-05-12T03:39:00.576Z,6.70
2019-05-12T03:43:01.544Z,6.70
2019-05-12T03:47:05.044Z,6.90
2019-05-12T03:51:05.806Z,6.20
2019-05-12T03:55:26.209Z,5.90
2019-05-12T03:59:09.828Z,5.70
2019-05-12T04:03:10.730Z,6.40
2019-05-12T04:07:15.020Z,6.50
2019-05-12T04:11:14.793Z,7.00
2019-05-12T04:15:15.964Z,6.30
2019-05-12T04:19:16.960Z,7.30
2019-05-12T04:23:17.809Z,5.70
2019-05-12T04:27:18.780Z,5.80
2019-05-12T04:31:19.765Z,6.10
2019-05-12T04:35:20.681Z,6.90
2019-05-12T04:39:25.085Z,6.90
2019-05-12T04:43:25.477Z,7.10
2019-05-12T04:47:26.916Z,8.10
2019-05-12T04:51:27.804Z,7.60
2019-05-12T04:55:28.659Z,8.00
2019-05-12T04:59:29.555Z,7.10
2019-05-12T05:03:30.424Z,7.30
2019-05-12T05:07:31.409Z,8.30
2019-05-12T05:11:34.511Z,8.30
2019-05-12T05:15:35.562Z,7.60
2019-05-12T05:19:36.659Z,8.50
2019-05-12T05:23:37.522Z,9.40
2019-05-12T05:27:38.435Z,9.50
2019-05-12T05:31:39.303Z,9.60
2019-05-12T05:35:40.302Z,9.20
2019-05-12T05:39:48.032Z,9.50
2019-05-12T05:43:48.365Z,9.50
2019-05-12T05:47:48.930Z,10.30
2019-05-12T05:51:54.360Z,9.10
2019-05-12T05:55:58.656Z,10.60
2019-05-12T05:59:55.303Z,11.00
2019-05-12T06:03:58.421Z,10.50
2019-05-12T06:07:59.038Z,11.00
2019-05-12T06:12:05.094Z,8.50
2019-05-12T06:16:04.428Z,9.80
2019-05-12T06:20:05.720Z,9.60
2019-05-12T06:24:08.910Z,7.40
2019-05-12T06:28:09.405Z,7.30
2019-05-12T06:32:11.015Z,8.70
2019-05-12T06:36:15.668Z,7.40
2019-05-12T06:40:15.154Z,6.40
2019-05-12T06:44:19.454Z,5.70
2019-05-12T06:48:19.405Z,6.00
2019-05-12T06:52:23.693Z,6.40
2019-05-12T06:56:24.540Z,6.20
2019-05-12T07:00:30.933Z,5.80
2019-05-12T07:04:28.222Z,6.80
2019-05-12T07:08:32.815Z,6.60
2019-05-12T07:12:36.123Z,6.50
2019-05-12T07:16:34.762Z,7.60
2019-05-12T07:20:39.082Z,9.80
2019-05-12T07:24:40.979Z,8.70
2019-05-12T07:28:43.246Z,7.20
2019-05-12T07:32:44.174Z,8.20
2019-05-12T07:36:46.162Z,8.10
2019-05-12T07:40:48.074Z,7.70
2019-05-12T07:44:50.157Z,7.60
2019-05-12T07:48:51.123Z,8.60
2019-05-12T07:52:54.204Z,8.30
2019-05-12T07:56:54.868Z,8.10
2019-05-12T08:01:02.609Z,9.00
2019-05-12T08:04:58.732Z,8.90
2019-05-12T08:08:59.609Z,8.10
2019-05-12T08:13:00.969Z,8.40
2019-05-12T08:17:10.485Z,8.40
2019-05-12T08:21:04.668Z,9.10
2019-05-12T08:25:06.056Z,9.00
2019-05-12T08:29:10.388Z,9.30
2019-05-12T08:33:10.272Z,9.90
2019-05-12T08:37:13.816Z,9.40
2019-05-12T08:41:14.671Z,10.00
2019-05-12T08:45:25.732Z,10.50
2019-05-12T08:49:18.519Z,9.70
2019-05-12T08:53:20.816Z,9.10
2019-05-12T08:57:24.131Z,10.20
2019-05-12T09:01:26.560Z,9.30
2019-05-12T09:05:33.574Z,9.70
2019-05-12T09:09:33.613Z,11.00
2019-05-12T09:13:34.452Z,10.10
2019-05-12T09:17:37.470Z,10.30
2019-05-12T09:21:38.963Z,9.30
2019-05-12T09:25:45.098Z,10.00
2019-05-12T09:29:43.673Z,9.50
2019-05-12T09:33:44.708Z,10.80
2019-05-12T09:37:45.686Z,9.90
2019-05-12T09:41:52.105Z,10.30
2019-05-12T09:45:54.015Z,10.20
2019-05-12T09:49:53.564Z,13.00
2019-05-12T09:53:55.480Z,11.90
2019-05-12T09:57:56.578Z,12.50
2019-05-12T10:01:57.456Z,12.10
2019-05-12T10:05:58.445Z,14.80
2019-05-12T10:09:59.897Z,13.90
2019-05-12T10:14:06.502Z,13.00
2019-05-12T10:18:11.038Z,12.30
2019-05-12T10:22:07.119Z,12.20
2019-05-12T10:26:11.589Z,13.60
2019-05-12T10:30:17.043Z,13.80
2019-05-12T10:34:18.347Z,12.30
2019-05-12T10:38:19.258Z,13.60
2019-05-12T10:42:20.158Z,12.70
2019-05-12T10:46:24.469Z,12.70
2019-05-12T10:50:24.021Z,14.30
2019-05-12T10:54:25.005Z,15.60
2019-05-12T10:58:26.406Z,15.50
2019-05-12T11:02:30.481Z,12.50
2019-05-12T11:06:30.150Z,12.10
2019-05-12T11:10:31.242Z,13.80
2019-05-12T11:14:34.205Z,11.50
2019-05-12T11:18:35.389Z,13.00
2019-05-12T11:22:36.332Z,12.70
2019-05-12T11:26:37.240Z,14.40
2019-05-12T11:30:38.331Z,15.30
2019-05-12T11:34:39.241Z,13.40
2019-05-12T11:38:44.267Z,14.50
2019-05-12T11:42:46.824Z,12.90
2019-05-12T11:46:47.627Z,13.50
2019-05-12T11:50:51.313Z,13.00
2019-05-12T11:54:53.760Z,12.30
2019-05-12T11:58:54.809Z,13.20
2019-05-12T12:02:55.648Z,16.60
2019-05-12T12:06:56.652Z,18.00
2019-05-12T12:10:57.609Z,15.20
2019-05-12T12:14:58.577Z,16.00
2019-05-12T12:19:02.500Z,17.30
2019-05-12T12:23:06.522Z,16.70
2019-05-12T12:27:05.524Z,18.60
2019-05-12T12:31:07.861Z,17.70
2019-05-12T12:35:12.977Z,19.80
2019-05-12T12:39:13.153Z,21.50
2019-05-12T12:43:14.211Z,19.70
2019-05-12T12:47:15.099Z,14.70
2019-05-12T12:51:17.529Z,15.50
2019-05-12T12:55:18.860Z,18.60
2019-05-12T12:59:19.845Z,17.40
2019-05-12T13:03:27.777Z,15.20
2019-05-12T13:07:24.122Z,15.50
2019-05-12T13:11:33.061Z,16.20
2019-05-12T13:15:28.049Z,15.90
2019-05-12T13:19:29.041Z,15.90
2019-05-12T13:23:37.860Z,15.90
2019-05-12T13:27:36.685Z,16.70
2019-05-12T13:31:36.219Z,18.10
2019-05-12T13:35:37.085Z,16.80
2019-05-12T13:39:38.073Z,17.00
2019-05-12T13:43:38.992Z,19.10
2019-05-12T13:47:40.241Z,17.30
2019-05-12T13:51:43.186Z,17.30
2019-05-12T13:55:45.482Z,17.50
2019-05-12T13:59:47.032Z,17.80
2019-05-12T14:03:50.612Z,18.80
2019-05-12T14:07:55.663Z,15.60
2019-05-12T14:11:53.941Z,15.80
2019-05-12T14:15:55.101Z,15.20
2019-05-12T14:19:55.976Z,13.60
2019-05-12T14:23:56.868Z,15.00
2019-05-12T14:27:59.370Z,14.70
2019-05-12T14:32:03.100Z,14.40
2019-05-12T14:36:04.058Z,15.30
2019-05-12T14:40:05.671Z,16.30
2019-05-12T14:44:06.745Z,15.60
2019-05-12T14:48:09.432Z,15.00
2019-05-12T14:52:10.540Z,14.30
2019-05-12T14:56:13.904Z,14.30
2019-05-12T15:00:21.202Z,14.60
2019-05-12T15:04:19.409Z,14.20
2019-05-12T15:08:21.370Z,14.20
2019-05-12T15:12:24.289Z,13.80
2019-05-12T15:16:25.334Z,13.10
2019-05-12T15:20:26.279Z,13.80
2019-05-12T15:24:27.314Z,15.30
2019-05-12T15:28:28.212Z,14.60
2019-05-12T15:32:29.174Z,15.40
2019-05-12T15:36:31.004Z,14.40
2019-05-12T15:40:32.008Z,14.50
2019-05-12T15:44:36.260Z,14.50
2019-05-12T15:48:35.784Z,17.10
2019-05-12T15:52:42.179Z,17.00
2019-05-12T15:56:40.513Z,14.70
2019-05-12T16:00:43.345Z,13.80
2019-05-12T16:04:48.229Z,14.00
2019-05-12T16:08:47.114Z,13.60
2019-05-12T16:12:48.129Z,14.00
2019-05-12T16:16:49.147Z,13.60
2019-05-12T16:20:50.075Z,14.30
2019-05-12T16:24:53.114Z,13.30
2019-05-12T16:29:02.360Z,12.90
2019-05-12T16:32:56.689Z,13.20
2019-05-12T16:36:57.687Z,13.20
2019-05-12T16:40:58.575Z,13.20
2019-05-12T16:45:06.109Z,12.90
2019-05-12T16:49:03.349Z,12.20
2019-05-12T16:53:04.464Z,12.30
2019-05-12T16:57:10.377Z,12.60
2019-05-12T17:01:08.304Z,13.00
2019-05-12T17:05:18.158Z,12.50
2019-05-12T17:09:13.495Z,12.30
2019-05-12T17:13:16.062Z,13.30
2019-05-12T17:17:21.017Z,13.70
2019-05-12T17:21:20.213Z,12.50
2019-05-12T17:25:21.131Z,12.70
2019-05-12T17:29:24.219Z,12.50
2019-05-12T17:33:27.516Z,12.80
2019-05-12T17:37:31.475Z,13.60
2019-05-12T17:41:31.601Z,13.40
2019-05-12T17:45:33.530Z,14.80
2019-05-12T17:49:39.025Z,14.80
2019-05-12T17:53:40.365Z,14.30
2019-05-12T17:57:43.838Z,13.30
2019-05-12T18:01:44.686Z,13.80
2019-05-12T18:05:47.990Z,13.80
2019-05-12T18:09:50.435Z,14.40
2019-05-12T18:14:01.691Z,14.60
2019-05-12T18:17:54.554Z,14.80
2019-05-12T18:22:02.952Z,14.60
2019-05-12T18:26:03.073Z,14.00
2019-05-12T18:30:04.475Z,13.90
2019-05-12T18:34:05.590Z,13.40
2019-05-12T18:38:08.072Z,13.10
2019-05-12T18:42:09.598Z,12.90
2019-05-12T18:46:10.616Z,13.50
2019-05-12T18:50:14.095Z,13.00
2019-05-12T18:54:15.169Z,12.00
2019-05-12T18:58:21.644Z,12.50
2019-05-12T19:02:23.391Z,12.10
2019-05-12T19:06:23.357Z,11.40
2019-05-12T19:10:24.665Z,11.50
2019-05-12T19:14:34.963Z,10.60
2019-05-12T19:18:32.506Z,10.70
2019-05-12T19:22:33.848Z,11.10
2019-05-12T19:26:38.422Z,12.90
2019-05-12T19:30:39.286Z,12.30
2019-05-12T19:34:40.204Z,12.50
2019-05-12T19:38:41.183Z,12.70
2019-05-12T19:42:42.908Z,12.90
2019-05-12T19:46:46.122Z,12.60
2019-05-12T19:50:52.864Z,12.80
2019-05-12T19:54:49.697Z,13.20
2019-05-12T19:58:50.637Z,13.70
2019-05-12T20:02:53.311Z,13.70
2019-05-12T20:06:54.612Z,13.70
2019-05-12T20:10:55.556Z,13.50
2019-05-12T20:14:57.422Z,13.30
2019-05-12T20:18:59.292Z,13.10
2019-05-12T20:23:00.171Z,12.90
2019-05-12T20:27:01.204Z,12.80
2019-05-12T20:31:05.830Z,12.70
2019-05-12T20:35:05.886Z,12.70
2019-05-12T20:39:09.846Z,12.50
2019-05-12T20:43:12.257Z,12.30
2019-05-12T20:47:13.972Z,12.40
2019-05-12T20:51:20.000Z,12.10
2019-05-12T20:55:18.056Z,11.90
2019-05-12T20:59:22.299Z,12.00
2019-05-12T21:03:24.123Z,11.90
2019-05-12T21:07:26.920Z,11.60
2019-05-12T21:11:35.548Z,11.40
2019-05-12T21:15:42.370Z,11.40
2019-05-12T21:19:41.496Z,11.40
2019-05-12T21:23:45.605Z,11.30
2019-05-12T21:27:47.803Z,11.20
2019-05-12T21:31:48.136Z,11.10
2019-05-12T21:35:49.007Z,11.10
2019-05-12T21:39:51.087Z,11.10
2019-05-12T21:43:54.295Z,10.90
2019-05-12T21:47:56.805Z,10.60
2019-05-12T21:52:02.976Z,10.40
2019-05-12T21:56:03.971Z,10.40
2019-05-12T22:00:10.768Z,10.50
2019-05-12T22:04:11.504Z,10.40
2019-05-12T22:08:20.749Z,10.50
2019-05-12T22:12:17.276Z,10.10
2019-05-12T22:16:18.159Z,10.30
2019-05-12T22:20:19.907Z,9.90
2019-05-12T22:24:27.502Z,10.20
2019-05-12T22:28:24.048Z,9.90
2019-05-12T22:32:29.409Z,10.00
2019-05-12T22:36:30.110Z,10.00
2019-05-12T22:40:30.842Z,9.80
2019-05-12T22:44:31.761Z,9.50
2019-05-12T22:48:37.240Z,9.60
2019-05-12T22:52:39.073Z,9.70
2019-05-12T22:56:38.250Z,9.60
2019-05-12T23:00:39.115Z,9.80
2019-05-12T23:04:40.507Z,9.70
2019-05-12T23:08:47.119Z,9.50
2019-05-12T23:12:44.741Z,9.20
2019-05-12T23:16:45.873Z,9.20
2019-05-12T23:20:46.726Z,9.00
2019-05-12T23:24:47.633Z,9.50
2019-05-12T23:28:50.357Z,9.00
2019-05-12T23:32:52.935Z,9.10
2019-05-12T23:36:56.860Z,9.10
2019-05-12T23:40:56.825Z,9.20
2019-05-12T23:44:57.775Z,9.00
2019-05-12T23:48:58.664Z,8.90
2019-05-12T23:52:59.636Z,8.60
2019-05-12T23:57:00.729Z,8.70
